aviador You're here:

OMFJ Decoded Metar

FUJEIRAH in UNITED ARAB EMIRATES
Report Time2018-01-22 01:00:00
UTC Time2018-01-22 01:49:54
Flight Rules mvfr MVFR
Wind280° at 12 kt
W.Decomp.*RWY 29: 11.8 kt HW 2.1 kt LCW
W.Rank280° ranks 6
Current wind is above 280° avg. (9.5)
Visibility6000 m
Phenomena:N/A
Clouds:N/A
Expected CloudBase > 3,600 ft AGL from Temp-Dew spread
CeilingNone
Temp18°C (ISA +3)
Dew Point09°C (56% RH)
AAT13.5°C
QNH1016 hPa
Density Alt522 ft
Elevation92 ft
Report Wrong Elevation
Raw Report
METAR OMFJ 220100Z 28012KT 6000 NSC 18/09 Q1016 RMK A3002=

Extra information for OMFJ:More info

Metar Taf Metar & Taf Last 4 Metars F.Rules Stats Wind Profile Meteogram Temp Stats Airport Information Weather charts Add Link Nearby VenuesMetar ALERT Operation Metar Decoded Social comments